Silkeborg, Denmark
Current Conditions -  °F | °C
As of 6:50 AM on Sunday 26 Oct 2014 (Local Time) from EKKA Reporting Station
Broken Clouds Broken Clouds  
Wind Chill: 54°   Ceiling: 5600
Heat Index: 54°   Visibility: 6mi
Dew Point: 52°   Wind: 9mph
Humidity: 94%   Direction: 210°SSW
Pressure: 29.97"   Gusts: NA
Location:  56.17°N, 9.55°E
Report Text: EKKA 260450Z AUTO 21008KT 9999NDV FEW022/// BKN056///12/11 Q1015
Loading
Personal Weather Stations






























Interactive Weather Map
Tropical Storm Tracking
New forecast layout! Learn more

10-Day Weather Forecast

Advertisements
Track Severe Weather on mobile